Ardsley On Hudson, New York
Current Conditions -  °F | °C
As of 1:56 AM on Sunday 26 Oct 2014 (Local Time) from KHPN Reporting Station
Broken Clouds Broken Clouds  
Wind Chill: 53°   Ceiling: 7000
Heat Index: 53°   Visibility: 10mi
Dew Point: 48°   Wind: 0mph
Humidity: 83%   Direction: NA
Pressure: 29.55"   Gusts: NA
Location:  41.02°N, 73.87°W
Report Text: KHPN 260556Z 00000KT 10SM SCT050 BKN070 12/09 A2955 RMK AO2 RAE49 SLP004 P0001 60001 T01170089 10167 20117 56007
Loading
Personal Weather Stations






























Interactive Weather Map New forecast layout! Learn more

10-Day Weather Forecast

Advertisements
Track Severe Weather on mobile